Unity House, Pennsylvania
Current Conditions -  °F | °C
As of 10:53 AM on Saturday 22 Nov 2014 (Local Time) from KMPO Reporting Station
Clear Clear  
Wind Chill: 20°   Ceiling: Unl
Heat Index: 31°   Visibility: 10mi
Dew Point:   Wind: 15mph
Humidity: 37%   Direction: 250°WSW
Pressure: 30.29"   Gusts: NA
Location:  41.15°N, 75.03°W
Report Text: KMPO 221553Z AUTO 25013KT 10SM CLR M01/M14 A3029 RMK AO2 SLP289 T10061139
Loading
Personal Weather Stations






























Interactive Weather Map New forecast layout! Learn more

10-Day Weather Forecast

Advertisements
Track Severe Weather on mobile